Chinggis Khaan International Airport
ZMUB : now visible

Airfield :











YOU CAN JOIN US ON...

 
LOGIN :

Register | Disclaimer

   EN    FR    IT 

 









Legend :    VFR   Marginal VFR   IFR   Intensive IFR   Very Intensive IFR
Visi :
Ceiling :
>= 8 km
>= 3000ft
5 to 8 km
1000 to 3000 ft
1500m to 5 km
500 to 1000 ft
800 to 1500m
200 to 500 ft
< 800m
< 200 ft
Symbols :   Thunderstorms  Fog  Heavy snow  Heavy precipitations  Wind > 20 kt






- Airport Elevation : 4364 ft
- IATA code : ULN


ZMUB - Chinggis Khaan International

CURRENT METAR :
  • 081230Z 00000MPS 9999 SCT100 06/M12 Q1023 NOSIG RMK QFE659.3 26 NT

EXPIRED METARs :
  • 081200Z VRB01MPS 9999 SCT100 06/M13 Q1022 NOSIG RMK QFE658.9 24 NT
  • 081130Z 28002MPS 9999 SCT100 07/M14 Q1022 NOSIG RMK QFE658.5 20 MOP
  • 081100Z 26004MPS 9999 SCT100 08/M15 Q1022 NOSIG RMK QFE658.5 18 MOP
  • 081030Z 22004MPS 170V280 9999 FEW033 SCT100 09/M14 Q1021 NOSIG RMK QFE658.2 18 MOP
  • 081000Z VRB02MPS 9999 FEW033 BKN100 10/M14 Q1021 NOSIG RMK QFE658.2 17 MOP

TAF TAF ZMUB
Valid from the 08 at 12:00 until the 09 at 18:00 UTC


081040Z 0812/0918 VRB02MPS 9999 SCT033 SCT100 TNM05/0822Z TX12/0907Z
BECMG 0821/0823 16005MPS
BECMG 0903/0905 VRB02MPS



MET'MAP, your aeronautical weather chart ! - Copyright ORBIFLY December 2007 - Disclaimer

ORBIFLY MET'MAP TEAM :

Programming & Development : Alexandra Zaïnal
Concept & original design : Baudouin d'Aumeries
Assistance for programming : Marc-Olivier Méhu
Technical & hardware support : Manuel Goepfert

Contact : metmap@orbifly.com




SOURCES & CREDITS :

   NOAA       Earth
Advisory